Dickey, North Dakota
Current Conditions -  °F | °C
As of 5:56 AM on Monday 22 Dec 2014 (Local Time) from KJMS Reporting Station
Moderate Fog Moderate Fog  
Wind Chill: -3°   Ceiling: 200
Heat Index:   Visibility: 0.5mi
Dew Point: -1°   Wind: 5mph
Humidity: 96%   Direction: 60°ENE
Pressure: 29.44"   Gusts: NA
Location:  46.54°N, 98.47°W
Report Text: KJMS 221156Z AUTO 06004KT 1/2SM FG VV002 00/M01 A2944 RMK AO2 SLP986 I6000 T00001006 10000 20000 55003
Loading
Personal Weather Stations






























Interactive Weather Map New forecast layout! Learn more

10-Day Weather Forecast

Advertisements
Track Severe Weather on mobile